createdAt,value
2023-04-15T00:01:08.333Z,98869.81
2023-04-15T00:03:35.604Z,98872.38
2023-04-15T00:06:02.503Z,98872.16
2023-04-15T00:08:30.082Z,98876.50
2023-04-15T00:10:56.716Z,98866.69
2023-04-15T00:13:23.734Z,98865.00
2023-04-15T00:15:50.469Z,98870.47
2023-04-15T00:18:17.033Z,98865.50
2023-04-15T00:20:43.613Z,98862.47
2023-04-15T00:23:10.248Z,98867.06
2023-04-15T00:25:36.818Z,98862.81
2023-04-15T00:28:04.090Z,98862.81
2023-04-15T00:30:31.693Z,98858.34
2023-04-15T00:32:58.382Z,98871.28
2023-04-15T00:35:25.562Z,98871.28
2023-04-15T00:37:52.213Z,98879.78
2023-04-15T00:40:21.015Z,98870.19
2023-04-15T00:42:47.938Z,98863.69
2023-04-15T00:45:14.647Z,98860.88
2023-04-15T00:47:44.536Z,98863.06
2023-04-15T00:50:12.891Z,98873.25
2023-04-15T00:52:40.341Z,98873.59
2023-04-15T00:55:07.778Z,98868.41
2023-04-15T00:57:36.029Z,98871.63
2023-04-15T01:00:04.869Z,98873.84
2023-04-15T01:02:32.886Z,98867.72
2023-04-15T01:04:59.630Z,98869.16
2023-04-15T01:07:26.334Z,98863.66
2023-04-15T01:09:53.263Z,98865.28
2023-04-15T01:12:20.679Z,98871.78
2023-04-15T01:14:47.382Z,98861.47
2023-04-15T01:17:14.567Z,98862.66
2023-04-15T01:19:41.603Z,98863.56
2023-04-15T01:22:08.460Z,98849.41
2023-04-15T01:24:36.946Z,98863.19
2023-04-15T01:27:05.400Z,98864.31
2023-04-15T01:29:38.422Z,98867.81
2023-04-15T01:32:05.831Z,98864.44
2023-04-15T01:34:34.985Z,98860.00
2023-04-15T01:37:02.335Z,98866.19
2023-04-15T01:39:28.833Z,98860.94
2023-04-15T01:41:55.372Z,98867.22
2023-04-15T01:44:22.018Z,98863.16
2023-04-15T01:46:48.676Z,98866.09
2023-04-15T01:49:15.409Z,98866.44
2023-04-15T01:51:41.977Z,98856.44
2023-04-15T01:54:08.473Z,98861.09
2023-04-15T01:56:35.191Z,98861.19
2023-04-15T01:59:02.248Z,98864.69
2023-04-15T02:01:29.224Z,98866.28
2023-04-15T02:03:56.880Z,98867.13
2023-04-15T02:06:23.646Z,98865.78
2023-04-15T02:08:50.360Z,98872.41
2023-04-15T02:11:17.017Z,98869.63
2023-04-15T02:13:43.669Z,98869.38
2023-04-15T02:16:17.836Z,98867.19
2023-04-15T02:18:48.113Z,98859.91
2023-04-15T02:21:14.999Z,98858.56
2023-04-15T02:23:41.652Z,98856.78
2023-04-15T02:26:08.366Z,98852.13
2023-04-15T02:28:35.145Z,98855.69
2023-04-15T02:31:06.658Z,98861.00
2023-04-15T02:33:33.551Z,98857.53
2023-04-15T02:36:00.169Z,98861.94
2023-04-15T02:38:26.832Z,98860.13
2023-04-15T02:40:53.553Z,98862.72
2023-04-15T02:43:20.330Z,98865.88
2023-04-15T02:45:47.391Z,98865.09
2023-04-15T02:48:14.195Z,98854.66
2023-04-15T02:50:41.060Z,98856.09
2023-04-15T02:53:07.711Z,98857.19
2023-04-15T02:55:34.458Z,98861.53
2023-04-15T02:58:01.245Z,98851.97
2023-04-15T03:00:28.403Z,98857.81
2023-04-15T03:02:59.828Z,98857.16
2023-04-15T03:05:26.948Z,98859.03
2023-04-15T03:07:53.822Z,98851.72
2023-04-15T03:10:21.733Z,98867.94
2023-04-15T03:12:48.938Z,98867.78
2023-04-15T03:15:15.765Z,98866.53
2023-04-15T03:17:42.543Z,98871.53
2023-04-15T03:20:09.642Z,98873.72
2023-04-15T03:22:36.211Z,98865.16
2023-04-15T03:25:03.095Z,98862.59
2023-04-15T03:27:29.803Z,98859.69
2023-04-15T03:29:56.915Z,98855.78
2023-04-15T03:32:23.634Z,98864.03
2023-04-15T03:34:50.335Z,98862.09
2023-04-15T03:37:16.957Z,98852.63
2023-04-15T03:39:43.601Z,98875.91
2023-04-15T03:42:10.121Z,98855.06
2023-04-15T03:44:37.239Z,98854.81
2023-04-15T03:47:03.863Z,98855.56
2023-04-15T03:49:30.474Z,98852.63
2023-04-15T03:51:57.459Z,98864.66
2023-04-15T03:54:24.189Z,98864.97
2023-04-15T03:56:50.803Z,98866.22
2023-04-15T03:59:17.499Z,98857.72
2023-04-15T04:01:44.179Z,98860.16
2023-04-15T04:04:11.076Z,98858.00
2023-04-15T04:06:38.008Z,98855.66
2023-04-15T04:09:04.658Z,98863.81
2023-04-15T04:11:31.808Z,98866.47
2023-04-15T04:13:58.544Z,98869.59
2023-04-15T04:16:25.628Z,98868.16
2023-04-15T04:18:52.300Z,98867.69
2023-04-15T04:21:19.404Z,98865.13
2023-04-15T04:23:46.443Z,98871.19
2023-04-15T04:26:13.061Z,98868.28
2023-04-15T04:28:42.516Z,98863.06
2023-04-15T04:31:09.245Z,98874.78
2023-04-15T04:33:36.093Z,98877.44
2023-04-15T04:36:02.721Z,98872.63
2023-04-15T04:38:29.311Z,98877.72
2023-04-15T04:40:56.013Z,98882.44
2023-04-15T04:43:22.511Z,98887.91
2023-04-15T04:45:49.183Z,98894.31
2023-04-15T04:48:16.246Z,98889.94
2023-04-15T04:50:43.038Z,98896.84
2023-04-15T04:53:09.639Z,98893.59
2023-04-15T04:55:39.303Z,98904.34
2023-04-15T04:58:05.817Z,98893.94
2023-04-15T05:00:32.722Z,98897.44
2023-04-15T05:02:59.438Z,98894.53
2023-04-15T05:05:26.390Z,98900.00
2023-04-15T05:07:53.468Z,98895.97
2023-04-15T05:10:19.987Z,98901.19
2023-04-15T05:12:46.533Z,98900.84
2023-04-15T05:15:13.252Z,98906.25
2023-04-15T05:17:39.827Z,98925.72
2023-04-15T05:20:07.105Z,98930.09
2023-04-15T05:22:33.818Z,98948.97
2023-04-15T05:25:00.487Z,98968.00
2023-04-15T05:27:26.987Z,98963.69
2023-04-15T05:29:53.605Z,98961.91
2023-04-15T05:32:20.189Z,98969.25
2023-04-15T05:34:47.199Z,98970.31
2023-04-15T05:37:13.874Z,98967.97
2023-04-15T05:39:40.487Z,98971.50
2023-04-15T05:42:07.665Z,98968.56
2023-04-15T05:44:34.486Z,98979.38
2023-04-15T05:47:01.129Z,98978.94
2023-04-15T05:49:27.625Z,98970.59
2023-04-15T05:51:54.312Z,98954.53
2023-04-15T05:54:23.219Z,98944.75
2023-04-15T05:56:52.552Z,98947.63
2023-04-15T05:59:19.284Z,98954.47
2023-04-15T06:01:45.840Z,98944.16
2023-04-15T06:04:12.475Z,98946.00
2023-04-15T06:06:39.254Z,98939.91
2023-04-15T06:09:06.215Z,98937.72
2023-04-15T06:11:32.733Z,98949.53
2023-04-15T06:13:59.354Z,98934.03
2023-04-15T06:16:26.358Z,98937.41
2023-04-15T06:18:52.903Z,98935.50
2023-04-15T06:21:19.704Z,98938.53
2023-04-15T06:23:46.353Z,98951.16
2023-04-15T06:26:12.906Z,98944.69
2023-04-15T06:28:39.504Z,98937.88
2023-04-15T06:31:06.448Z,98944.50
2023-04-15T06:33:32.907Z,98937.25
2023-04-15T06:35:59.685Z,98949.59
2023-04-15T06:38:26.574Z,98969.09
2023-04-15T06:40:53.164Z,98970.38
2023-04-15T06:43:20.471Z,98972.31
2023-04-15T06:45:47.279Z,98979.06
2023-04-15T06:48:13.987Z,98989.38
2023-04-15T06:50:41.304Z,99007.41
2023-04-15T06:53:07.919Z,99014.22
2023-04-15T06:55:34.449Z,99016.22
2023-04-15T06:58:01.107Z,99017.78
2023-04-15T07:00:28.826Z,99038.09
2023-04-15T07:05:39.849Z,99034.53
2023-04-15T07:08:06.861Z,99027.91
2023-04-15T07:10:36.488Z,99041.28
2023-04-15T07:13:04.927Z,99025.97
2023-04-15T07:15:31.446Z,99035.03
2023-04-15T07:17:58.206Z,99052.66
2023-04-15T07:20:25.124Z,99046.69
2023-04-15T07:22:51.692Z,99065.13
2023-04-15T07:25:19.076Z,99067.91
2023-04-15T07:27:46.087Z,99062.50
2023-04-15T07:30:13.275Z,99058.00
2023-04-15T07:32:40.603Z,99072.16
2023-04-15T07:35:08.030Z,99064.84
2023-04-15T07:37:34.553Z,99081.47
2023-04-15T07:40:01.168Z,99078.59
2023-04-15T07:42:27.848Z,99078.31
2023-04-15T07:44:54.432Z,99091.78
2023-04-15T07:47:21.311Z,99109.84
2023-04-15T07:49:48.053Z,99098.28
2023-04-15T07:52:14.676Z,99095.41
2023-04-15T07:54:41.198Z,99096.28
2023-04-15T07:57:08.079Z,99120.78
2023-04-15T07:59:34.729Z,99095.34
2023-04-15T08:02:01.401Z,99113.75
2023-04-15T08:04:28.842Z,99101.50
2023-04-15T08:06:55.519Z,99109.84
2023-04-15T08:09:22.165Z,99127.84
2023-04-15T08:11:49.860Z,99127.53
2023-04-15T08:14:16.862Z,99139.25
2023-04-15T08:16:43.560Z,99117.59
2023-04-15T08:19:10.307Z,99120.97
2023-04-15T08:21:36.928Z,99111.75
2023-04-15T08:24:03.797Z,99131.50
2023-04-15T08:26:30.779Z,99123.00
2023-04-15T08:28:57.435Z,99130.56
2023-04-15T08:31:24.132Z,99128.22
2023-04-15T08:33:53.678Z,99124.59
2023-04-15T08:36:20.311Z,99117.75
2023-04-15T08:38:46.887Z,99129.69
2023-04-15T08:41:25.726Z,99125.94
2023-04-15T08:44:02.078Z,99132.22
2023-04-15T08:46:30.380Z,99118.19
2023-04-15T08:48:58.268Z,99124.63
2023-04-15T08:51:25.583Z,99141.53
2023-04-15T08:53:52.862Z,99121.72
2023-04-15T08:56:21.476Z,99135.13
2023-04-15T08:58:48.633Z,99161.59
2023-04-15T09:01:15.434Z,99137.56
2023-04-15T09:03:42.549Z,99143.75
2023-04-15T09:06:09.484Z,99145.94
2023-04-15T09:08:36.193Z,99155.53
2023-04-15T09:11:03.887Z,99144.66
2023-04-15T09:13:31.007Z,99156.66
2023-04-15T09:15:58.631Z,99165.16
2023-04-15T09:18:32.769Z,99172.63
2023-04-15T09:21:11.347Z,99151.72
2023-04-15T09:23:39.531Z,99162.28
2023-04-15T09:26:06.499Z,99182.44
2023-04-15T09:28:33.531Z,99158.00
2023-04-15T09:31:01.226Z,99161.28
2023-04-15T09:33:29.917Z,99162.91
2023-04-15T09:36:01.983Z,99158.44
2023-04-15T09:38:28.844Z,99181.41
2023-04-15T09:40:56.115Z,99195.47
2023-04-15T09:43:23.247Z,99209.81
2023-04-15T09:45:52.080Z,99212.97
2023-04-15T09:48:25.472Z,99233.50
2023-04-15T09:50:53.707Z,99229.16
2023-04-15T09:53:21.726Z,99248.19
2023-04-15T09:55:58.888Z,99235.03
2023-04-15T09:58:27.631Z,99227.88
2023-04-15T10:00:56.401Z,99220.69
2023-04-15T10:03:26.074Z,99229.06
2023-04-15T10:05:54.248Z,99246.31
2023-04-15T10:08:24.063Z,99250.50
2023-04-15T10:10:54.289Z,99262.41
2023-04-15T10:13:25.724Z,99250.25
2023-04-15T10:16:04.579Z,99258.16
2023-04-15T10:18:34.543Z,99280.53
2023-04-15T10:21:01.814Z,99278.59
2023-04-15T10:23:29.062Z,99272.00
2023-04-15T10:25:56.434Z,99268.03
2023-04-15T10:28:23.007Z,99297.28
2023-04-15T10:30:50.239Z,99274.97
2023-04-15T10:33:20.548Z,99259.88
2023-04-15T10:35:50.183Z,99270.84
2023-04-15T10:38:45.994Z,99267.94
2023-04-15T10:41:21.207Z,99278.34
2023-04-15T10:43:53.085Z,99258.00
2023-04-15T10:46:22.814Z,99271.09
2023-04-15T10:48:51.572Z,99273.63
2023-04-15T10:51:28.462Z,99271.41
2023-04-15T10:54:00.045Z,99277.75
2023-04-15T10:56:29.632Z,99283.16
2023-04-15T10:58:56.216Z,99280.22
2023-04-15T11:01:23.365Z,99285.34
2023-04-15T11:03:51.972Z,99291.50
2023-04-15T11:06:18.653Z,99305.22
2023-04-15T11:08:57.200Z,99292.69
2023-04-15T11:11:23.870Z,99298.53
2023-04-15T11:13:52.466Z,99289.59
2023-04-15T11:16:19.123Z,99299.53
2023-04-15T11:18:56.014Z,99323.72
2023-04-15T11:21:26.457Z,99316.25
2023-04-15T11:23:53.029Z,99307.59
2023-04-15T11:26:19.689Z,99311.88
2023-04-15T11:28:46.533Z,99329.38
2023-04-15T11:31:18.473Z,99315.19
2023-04-15T11:33:55.623Z,99324.81
2023-04-15T11:36:24.980Z,99316.97
2023-04-15T11:38:51.586Z,99312.88
2023-04-15T11:41:22.399Z,99322.09
2023-04-15T11:43:49.614Z,99310.41
2023-04-15T11:46:16.453Z,99327.22
2023-04-15T11:48:45.130Z,99331.91
2023-04-15T11:51:12.994Z,99331.78
2023-04-15T11:53:44.080Z,99339.81
2023-04-15T11:56:17.279Z,99350.00
2023-04-15T11:58:46.343Z,99351.91
2023-04-15T12:01:13.416Z,99354.91
2023-04-15T12:03:44.244Z,99362.00
2023-04-15T12:06:14.160Z,99362.34
2023-04-15T12:08:56.003Z,99357.66
2023-04-15T12:11:31.683Z,99362.78
2023-04-15T12:14:28.651Z,99383.81
2023-04-15T12:16:58.850Z,99370.53
2023-04-15T12:19:27.580Z,99368.75
2023-04-15T12:22:02.979Z,99369.44
2023-04-15T12:24:32.455Z,99365.69
2023-04-15T12:27:03.880Z,99375.22
2023-04-15T12:29:31.066Z,99377.53
2023-04-15T12:31:59.907Z,99374.66
2023-04-15T12:34:31.723Z,99398.34
2023-04-15T12:36:59.687Z,99384.78
2023-04-15T12:39:30.511Z,99389.53
2023-04-15T12:41:57.769Z,99400.63
2023-04-15T12:44:24.345Z,99395.06
2023-04-15T12:46:53.570Z,99414.16
2023-04-15T12:49:24.680Z,99387.25
2023-04-15T12:51:52.268Z,99409.81
2023-04-15T12:54:19.058Z,99401.75
2023-04-15T12:56:46.775Z,99398.25
2023-04-15T12:59:13.841Z,99422.88
2023-04-15T13:01:40.862Z,99413.97
2023-04-15T13:04:08.187Z,99412.09
2023-04-15T13:06:35.282Z,99429.09
2023-04-15T13:09:05.237Z,99417.69
2023-04-15T13:11:33.962Z,99435.09
2023-04-15T13:14:05.606Z,99433.84
2023-04-15T13:16:33.418Z,99428.56
2023-04-15T13:19:00.550Z,99422.56
2023-04-15T13:21:27.778Z,99490.53
2023-04-15T13:23:54.922Z,99449.72
2023-04-15T13:26:21.954Z,99439.00
2023-04-15T13:28:48.620Z,99447.41
2023-04-15T13:31:15.263Z,99445.69
2023-04-15T13:33:41.979Z,99457.88
2023-04-15T13:36:08.782Z,99450.41
2023-04-15T13:38:35.357Z,99452.13
2023-04-15T13:41:02.140Z,99456.38
2023-04-15T13:43:28.855Z,99459.81
2023-04-15T13:45:55.478Z,99464.16
2023-04-15T13:48:22.138Z,99466.34
2023-04-15T13:50:48.812Z,99476.63
2023-04-15T13:53:15.331Z,99472.47
2023-04-15T13:55:42.937Z,99484.16
2023-04-15T13:58:10.032Z,99470.19
2023-04-15T14:00:36.931Z,99474.13
2023-04-15T14:03:03.895Z,99476.44
2023-04-15T14:05:31.240Z,99476.09
2023-04-15T14:07:59.179Z,99490.16
2023-04-15T14:10:25.923Z,99480.28
2023-04-15T14:12:52.485Z,99494.78
2023-04-15T14:15:19.293Z,99480.69
2023-04-15T14:17:46.123Z,99496.91
2023-04-15T14:20:13.983Z,99514.81
2023-04-15T14:22:42.920Z,99541.63
2023-04-15T14:25:13.175Z,99497.88
2023-04-15T14:27:44.399Z,99510.63
2023-04-15T14:30:11.451Z,99548.28
2023-04-15T14:32:37.972Z,99511.34
2023-04-15T14:35:04.751Z,99516.63
2023-04-15T14:37:31.550Z,99517.16
2023-04-15T14:39:58.134Z,99528.94
2023-04-15T14:42:25.614Z,99536.22
2023-04-15T14:44:52.253Z,99525.06
2023-04-15T14:47:18.947Z,99540.13
2023-04-15T14:49:45.848Z,99526.44
2023-04-15T14:52:12.655Z,99517.28
2023-04-15T14:54:39.158Z,99526.72
2023-04-15T14:57:06.021Z,99540.28
2023-04-15T14:59:32.697Z,99528.66
2023-04-15T15:01:59.493Z,99534.72
2023-04-15T15:04:26.425Z,99532.81
2023-04-15T15:06:53.068Z,99536.38
2023-04-15T15:09:19.859Z,99538.28
2023-04-15T15:11:46.559Z,99534.59
2023-04-15T15:14:13.444Z,99541.84
2023-04-15T15:16:39.979Z,99534.91
2023-04-15T15:19:06.632Z,99552.25
2023-04-15T15:21:33.766Z,99543.97
2023-04-15T15:24:00.605Z,99540.38
2023-04-15T15:26:28.219Z,99549.22
2023-04-15T15:28:55.076Z,99541.44
2023-04-15T15:31:21.724Z,99549.16
2023-04-15T15:33:48.251Z,99551.09
2023-04-15T15:36:14.959Z,99560.25
2023-04-15T15:38:41.894Z,99561.34
2023-04-15T15:41:08.477Z,99561.53
2023-04-15T15:43:35.283Z,99568.84
2023-04-15T15:46:01.917Z,99566.06
2023-04-15T15:48:28.446Z,99578.84
2023-04-15T15:50:55.100Z,99571.63
2023-04-15T15:53:24.270Z,99601.91
2023-04-15T15:55:53.186Z,99586.53
2023-04-15T15:58:20.837Z,99591.75
2023-04-15T16:00:47.588Z,99591.44
2023-04-15T16:03:14.962Z,99597.34
2023-04-15T16:05:41.832Z,99597.63
2023-04-15T16:08:08.453Z,99604.41
2023-04-15T16:10:35.128Z,99598.31
2023-04-15T16:13:02.330Z,99598.94
2023-04-15T16:15:29.053Z,99599.72
2023-04-15T16:17:55.713Z,99615.94
2023-04-15T16:20:22.446Z,99610.44
2023-04-15T16:22:49.028Z,99614.44
2023-04-15T16:25:15.687Z,99620.66
2023-04-15T16:27:54.685Z,99612.34
2023-04-15T16:30:25.838Z,99614.31
2023-04-15T16:32:52.522Z,99617.09
2023-04-15T16:35:19.338Z,99627.53
2023-04-15T16:37:45.984Z,99630.56
2023-04-15T16:40:12.873Z,99626.63
2023-04-15T16:42:39.925Z,99624.53
2023-04-15T16:45:06.900Z,99626.94
2023-04-15T16:47:33.607Z,99625.81
2023-04-15T16:50:00.157Z,99626.69
2023-04-15T16:52:28.392Z,99629.31
2023-04-15T16:54:55.090Z,99636.75
2023-04-15T16:57:21.594Z,99629.31
2023-04-15T16:59:48.159Z,99640.16
2023-04-15T17:02:14.933Z,99641.84
2023-04-15T17:04:41.913Z,99646.78
2023-04-15T17:07:10.510Z,99643.66
2023-04-15T17:09:39.497Z,99655.09
2023-04-15T17:12:07.446Z,99654.91
2023-04-15T17:14:35.091Z,99652.72
2023-04-15T17:17:01.842Z,99662.56
2023-04-15T17:19:28.460Z,99664.44
2023-04-15T17:21:55.328Z,99661.31
2023-04-15T17:24:22.046Z,99666.41
2023-04-15T17:26:48.780Z,99667.09
2023-04-15T17:29:15.483Z,99677.28
2023-04-15T17:31:42.319Z,99672.06
2023-04-15T17:34:09.991Z,99671.94
2023-04-15T17:36:37.372Z,99671.25
2023-04-15T17:39:04.697Z,99678.38
2023-04-15T17:41:31.388Z,99683.31
2023-04-15T17:43:58.024Z,99678.44
2023-04-15T17:46:24.660Z,99687.38
2023-04-15T17:48:51.408Z,99685.38
2023-04-15T17:51:18.221Z,99686.13
2023-04-15T17:53:44.820Z,99685.22
2023-04-15T17:56:11.464Z,99689.47
2023-04-15T17:58:39.264Z,99686.44
2023-04-15T18:01:06.404Z,99680.09
2023-04-15T18:03:33.322Z,99679.19
2023-04-15T18:06:01.360Z,99679.22
2023-04-15T18:08:29.088Z,99685.56
2023-04-15T18:10:56.468Z,99685.81
2023-04-15T18:13:23.074Z,99685.88
2023-04-15T18:15:51.398Z,99685.53
2023-04-15T18:18:18.117Z,99698.09
2023-04-15T18:20:44.823Z,99691.94
2023-04-15T18:23:11.662Z,99701.13
2023-04-15T18:25:38.433Z,99707.25
2023-04-15T18:28:05.649Z,99706.00
2023-04-15T18:30:32.336Z,99715.09
2023-04-15T18:32:59.003Z,99718.28
2023-04-15T18:35:25.600Z,99720.44
2023-04-15T18:37:52.914Z,99723.63
2023-04-15T18:40:19.670Z,99723.97
2023-04-15T18:42:46.262Z,99739.75
2023-04-15T18:45:12.922Z,99741.47
2023-04-15T18:47:39.650Z,99745.91
2023-04-15T18:50:07.428Z,99743.31
2023-04-15T18:52:34.363Z,99749.13
2023-04-15T18:55:03.220Z,99762.34
2023-04-15T18:57:33.238Z,99749.56
2023-04-15T19:00:02.156Z,99769.50
2023-04-15T19:02:28.862Z,99768.00
2023-04-15T19:04:55.687Z,99775.09
2023-04-15T19:07:23.265Z,99787.44
2023-04-15T19:09:49.858Z,99774.34
2023-04-15T19:12:16.371Z,99774.34
2023-04-15T19:14:42.988Z,99783.06
2023-04-15T19:17:09.608Z,99784.31
2023-04-15T19:19:37.264Z,99790.56
2023-04-15T19:22:04.125Z,99796.78
2023-04-15T19:24:32.973Z,99791.53
2023-04-15T19:27:00.074Z,99802.75
2023-04-15T19:29:28.676Z,99810.53
2023-04-15T19:31:55.416Z,99806.34
2023-04-15T19:34:22.051Z,99794.66
2023-04-15T19:36:48.907Z,99801.72
2023-04-15T19:39:15.559Z,99807.44
2023-04-15T19:41:44.025Z,99808.88
2023-04-15T19:44:13.110Z,99815.81
2023-04-15T19:46:44.862Z,99820.22
2023-04-15T19:49:11.632Z,99829.69
2023-04-15T19:51:38.317Z,99847.66
2023-04-15T19:54:04.860Z,99836.84
2023-04-15T19:56:34.390Z,99852.88
2023-04-15T19:59:02.151Z,99857.38
2023-04-15T20:01:28.922Z,99853.06
2023-04-15T20:03:55.926Z,99857.63
2023-04-15T20:06:22.862Z,99867.44
2023-04-15T20:08:49.656Z,99867.25
2023-04-15T20:11:17.242Z,99864.13
2023-04-15T20:13:43.965Z,99879.59
2023-04-15T20:16:11.774Z,99865.59
2023-04-15T20:18:38.402Z,99859.72
2023-04-15T20:21:05.266Z,99866.81
2023-04-15T20:23:31.790Z,99854.50
2023-04-15T20:25:58.319Z,99865.78
2023-04-15T20:28:27.620Z,99854.53
2023-04-15T20:30:54.129Z,99848.97
2023-04-15T20:33:22.260Z,99859.19
2023-04-15T20:35:48.950Z,99862.94
2023-04-15T20:38:16.371Z,99870.34
2023-04-15T20:40:43.409Z,99877.09
2023-04-15T20:43:10.434Z,99887.72
2023-04-15T20:45:37.279Z,99884.91
2023-04-15T20:48:04.145Z,99890.66
2023-04-15T20:50:30.890Z,99896.03
2023-04-15T20:52:57.633Z,99896.28
2023-04-15T20:55:24.138Z,99905.75
2023-04-15T20:57:51.015Z,99899.22
2023-04-15T21:00:17.698Z,99896.81
2023-04-15T21:02:44.335Z,99901.31
2023-04-15T21:05:11.485Z,99909.72
2023-04-15T21:07:38.140Z,99916.44
2023-04-15T21:10:04.998Z,99909.34
2023-04-15T21:12:31.765Z,99917.09
2023-04-15T21:14:58.463Z,99909.44
2023-04-15T21:17:25.185Z,99905.38
2023-04-15T21:19:51.878Z,99909.59
2023-04-15T21:22:18.537Z,99899.28
2023-04-15T21:24:45.037Z,99899.09
2023-04-15T21:27:11.659Z,99897.94
2023-04-15T21:29:40.408Z,99915.13
2023-04-15T21:32:07.153Z,99914.03
2023-04-15T21:34:33.921Z,99924.34
2023-04-15T21:37:00.694Z,99924.53
2023-04-15T21:39:27.258Z,99931.56
2023-04-15T21:41:53.959Z,99935.09
2023-04-15T21:44:20.609Z,99925.94
2023-04-15T21:46:47.163Z,99941.16
2023-04-15T21:49:14.201Z,99939.91
2023-04-15T21:51:40.877Z,99944.44
2023-04-15T21:54:07.533Z,99937.78
2023-04-15T21:56:34.193Z,99944.53
2023-04-15T21:59:00.760Z,99951.69
2023-04-15T22:01:27.502Z,99950.56
2023-04-15T22:03:54.270Z,99965.03
2023-04-15T22:06:21.160Z,99962.63
2023-04-15T22:08:57.049Z,99970.06
2023-04-15T22:11:28.481Z,99965.59
2023-04-15T22:13:56.627Z,99972.44
2023-04-15T22:16:24.496Z,99989.16
2023-04-15T22:18:51.487Z,99976.16
2023-04-15T22:21:18.070Z,99981.19
2023-04-15T22:23:48.831Z,99987.94
2023-04-15T22:26:15.733Z,99983.03
2023-04-15T22:28:42.274Z,99997.50
2023-04-15T22:31:09.048Z,99998.91
2023-04-15T22:33:35.962Z,99998.22
2023-04-15T22:36:02.546Z,99995.75
2023-04-15T22:38:29.131Z,100000.63
2023-04-15T22:40:56.019Z,100004.03
2023-04-15T22:43:22.580Z,100004.63
2023-04-15T22:45:53.151Z,100005.81
2023-04-15T22:48:19.996Z,100004.94
2023-04-15T22:50:46.633Z,100004.09
2023-04-15T22:53:13.292Z,100006.56
2023-04-15T22:55:40.006Z,100004.25
2023-04-15T22:58:06.583Z,100004.31
2023-04-15T23:00:33.234Z,100007.31
2023-04-15T23:03:00.274Z,100005.81
2023-04-15T23:05:27.624Z,100007.84
2023-04-15T23:07:54.343Z,100022.03
2023-04-15T23:10:20.996Z,100027.75
2023-04-15T23:12:47.564Z,100023.69
2023-04-15T23:15:14.130Z,100026.38
2023-04-15T23:17:42.695Z,100027.56
2023-04-15T23:20:09.979Z,100023.56
2023-04-15T23:22:40.449Z,100031.44
2023-04-15T23:25:07.508Z,100031.81
2023-04-15T23:27:34.508Z,100029.47
2023-04-15T23:30:01.065Z,100033.06
2023-04-15T23:32:27.942Z,100039.16
2023-04-15T23:34:54.567Z,100042.38
2023-04-15T23:37:21.208Z,100039.84
2023-04-15T23:39:48.016Z,100041.38
2023-04-15T23:42:14.697Z,100036.38
2023-04-15T23:44:41.287Z,100041.25
2023-04-15T23:47:08.001Z,100037.06
2023-04-15T23:49:34.550Z,100043.69
2023-04-15T23:52:01.201Z,100042.06
2023-04-15T23:54:28.025Z,100037.44
2023-04-15T23:56:54.553Z,100035.03
2023-04-15T23:59:21.088Z,100030.66
